sensor_id;sensor_type;location;lat;lon;timestamp;P1;durP1;ratioP1;P2;durP2;ratioP2
39524;SDS011;25203;50.754;6.978;2023-05-07T00:01:23;12.77;;;8.90;;
39524;SDS011;25203;50.754;6.978;2023-05-07T00:03:24;9.32;;;8.43;;
39524;SDS011;25203;50.754;6.978;2023-05-07T00:05:24;9.35;;;8.18;;
39524;SDS011;25203;50.754;6.978;2023-05-07T00:07:25;11.30;;;9.18;;
39524;SDS011;25203;50.754;6.978;2023-05-07T00:09:26;10.20;;;8.75;;
39524;SDS011;25203;50.754;6.978;2023-05-07T00:11:27;10.80;;;8.35;;
39524;SDS011;25203;50.754;6.978;2023-05-07T00:13:28;11.35;;;8.85;;
39524;SDS011;25203;50.754;6.978;2023-05-07T00:15:35;11.95;;;9.25;;
39524;SDS011;25203;50.754;6.978;2023-05-07T00:17:35;8.95;;;8.05;;
39524;SDS011;25203;50.754;6.978;2023-05-07T00:19:36;8.52;;;7.20;;
39524;SDS011;25203;50.754;6.978;2023-05-07T00:21:37;7.07;;;6.38;;
39524;SDS011;25203;50.754;6.978;2023-05-07T00:23:37;8.07;;;6.20;;
39524;SDS011;25203;50.754;6.978;2023-05-07T00:25:38;7.40;;;6.38;;
39524;SDS011;25203;50.754;6.978;2023-05-07T00:27:39;7.78;;;6.05;;
39524;SDS011;25203;50.754;6.978;2023-05-07T00:29:39;11.32;;;8.57;;
39524;SDS011;25203;50.754;6.978;2023-05-07T00:31:40;13.40;;;9.45;;
39524;SDS011;25203;50.754;6.978;2023-05-07T00:33:40;9.00;;;8.00;;
39524;SDS011;25203;50.754;6.978;2023-05-07T00:35:42;9.63;;;8.23;;
39524;SDS011;25203;50.754;6.978;2023-05-07T00:37:42;10.10;;;7.70;;
39524;SDS011;25203;50.754;6.978;2023-05-07T00:39:43;10.40;;;7.97;;
39524;SDS011;25203;50.754;6.978;2023-05-07T00:41:43;9.38;;;7.82;;
39524;SDS011;25203;50.754;6.978;2023-05-07T00:43:44;12.38;;;8.85;;
39524;SDS011;25203;50.754;6.978;2023-05-07T00:45:45;9.13;;;7.10;;
39524;SDS011;25203;50.754;6.978;2023-05-07T00:47:46;11.23;;;8.50;;
39524;SDS011;25203;50.754;6.978;2023-05-07T00:49:48;10.07;;;8.02;;
39524;SDS011;25203;50.754;6.978;2023-05-07T00:51:48;19.05;;;12.95;;
39524;SDS011;25203;50.754;6.978;2023-05-07T00:53:50;17.10;;;11.45;;
39524;SDS011;25203;50.754;6.978;2023-05-07T00:55:51;12.25;;;9.70;;
39524;SDS011;25203;50.754;6.978;2023-05-07T00:57:51;12.82;;;10.27;;
39524;SDS011;25203;50.754;6.978;2023-05-07T00:59:52;12.25;;;10.07;;
39524;SDS011;25203;50.754;6.978;2023-05-07T01:01:53;14.00;;;9.20;;
39524;SDS011;25203;50.754;6.978;2023-05-07T01:03:53;12.32;;;9.55;;
39524;SDS011;25203;50.754;6.978;2023-05-07T01:05:54;17.10;;;10.48;;
39524;SDS011;25203;50.754;6.978;2023-05-07T01:07:57;14.40;;;9.88;;
39524;SDS011;25203;50.754;6.978;2023-05-07T01:09:58;19.65;;;13.00;;
39524;SDS011;25203;50.754;6.978;2023-05-07T01:12:00;16.35;;;10.70;;
39524;SDS011;25203;50.754;6.978;2023-05-07T01:14:01;13.73;;;8.70;;
39524;SDS011;25203;50.754;6.978;2023-05-07T01:16:02;10.95;;;8.00;;
39524;SDS011;25203;50.754;6.978;2023-05-07T01:18:03;15.85;;;8.73;;
39524;SDS011;25203;50.754;6.978;2023-05-07T01:20:05;12.70;;;8.45;;
39524;SDS011;25203;50.754;6.978;2023-05-07T01:22:10;14.02;;;8.98;;
39524;SDS011;25203;50.754;6.978;2023-05-07T01:24:11;11.32;;;8.05;;
39524;SDS011;25203;50.754;6.978;2023-05-07T01:26:12;9.88;;;8.13;;
39524;SDS011;25203;50.754;6.978;2023-05-07T01:28:13;11.63;;;8.77;;
39524;SDS011;25203;50.754;6.978;2023-05-07T01:30:13;17.13;;;8.70;;
39524;SDS011;25203;50.754;6.978;2023-05-07T01:32:14;10.65;;;9.18;;
39524;SDS011;25203;50.754;6.978;2023-05-07T01:34:19;13.55;;;9.23;;
39524;SDS011;25203;50.754;6.978;2023-05-07T01:36:21;12.38;;;9.20;;
39524;SDS011;25203;50.754;6.978;2023-05-07T01:38:25;13.00;;;9.00;;
39524;SDS011;25203;50.754;6.978;2023-05-07T01:40:28;16.38;;;12.25;;
39524;SDS011;25203;50.754;6.978;2023-05-07T01:42:29;14.32;;;9.82;;
39524;SDS011;25203;50.754;6.978;2023-05-07T01:44:30;9.95;;;7.57;;
39524;SDS011;25203;50.754;6.978;2023-05-07T01:46:31;11.25;;;9.55;;
39524;SDS011;25203;50.754;6.978;2023-05-07T01:48:32;12.13;;;9.13;;
39524;SDS011;25203;50.754;6.978;2023-05-07T01:50:33;12.02;;;10.23;;
39524;SDS011;25203;50.754;6.978;2023-05-07T01:52:38;11.98;;;8.68;;
39524;SDS011;25203;50.754;6.978;2023-05-07T01:54:39;8.85;;;6.50;;
39524;SDS011;25203;50.754;6.978;2023-05-07T01:56:39;7.70;;;6.53;;
39524;SDS011;25203;50.754;6.978;2023-05-07T01:58:40;7.30;;;6.40;;
39524;SDS011;25203;50.754;6.978;2023-05-07T02:00:41;13.77;;;8.75;;
39524;SDS011;25203;50.754;6.978;2023-05-07T02:02:42;12.18;;;8.57;;
39524;SDS011;25203;50.754;6.978;2023-05-07T02:04:42;10.27;;;8.68;;
39524;SDS011;25203;50.754;6.978;2023-05-07T02:06:43;11.77;;;9.20;;
39524;SDS011;25203;50.754;6.978;2023-05-07T02:08:43;11.63;;;9.23;;
39524;SDS011;25203;50.754;6.978;2023-05-07T02:10:44;13.05;;;8.27;;
39524;SDS011;25203;50.754;6.978;2023-05-07T02:12:45;12.38;;;7.82;;
39524;SDS011;25203;50.754;6.978;2023-05-07T02:14:45;11.38;;;8.52;;
39524;SDS011;25203;50.754;6.978;2023-05-07T02:16:46;12.55;;;8.68;;
39524;SDS011;25203;50.754;6.978;2023-05-07T02:18:46;8.68;;;7.82;;
39524;SDS011;25203;50.754;6.978;2023-05-07T02:20:47;9.38;;;8.40;;
39524;SDS011;25203;50.754;6.978;2023-05-07T02:22:48;10.25;;;8.23;;
39524;SDS011;25203;50.754;6.978;2023-05-07T02:24:48;8.05;;;7.25;;
39524;SDS011;25203;50.754;6.978;2023-05-07T02:26:49;8.98;;;7.60;;
39524;SDS011;25203;50.754;6.978;2023-05-07T02:28:49;11.60;;;6.60;;
39524;SDS011;25203;50.754;6.978;2023-05-07T02:30:50;11.05;;;6.82;;
39524;SDS011;25203;50.754;6.978;2023-05-07T02:32:52;7.10;;;6.10;;
39524;SDS011;25203;50.754;6.978;2023-05-07T02:34:53;8.20;;;5.78;;
39524;SDS011;25203;50.754;6.978;2023-05-07T02:36:53;6.95;;;5.53;;
39524;SDS011;25203;50.754;6.978;2023-05-07T02:38:54;8.32;;;5.68;;
39524;SDS011;25203;50.754;6.978;2023-05-07T02:40:55;7.95;;;5.03;;
39524;SDS011;25203;50.754;6.978;2023-05-07T02:42:55;5.72;;;4.10;;
39524;SDS011;25203;50.754;6.978;2023-05-07T02:44:56;6.25;;;4.65;;
39524;SDS011;25203;50.754;6.978;2023-05-07T02:46:56;4.72;;;3.75;;
39524;SDS011;25203;50.754;6.978;2023-05-07T02:48:57;3.90;;;3.60;;
39524;SDS011;25203;50.754;6.978;2023-05-07T02:50:58;4.90;;;4.05;;
39524;SDS011;25203;50.754;6.978;2023-05-07T02:52:59;6.07;;;4.45;;
39524;SDS011;25203;50.754;6.978;2023-05-07T02:54:59;6.85;;;4.50;;
39524;SDS011;25203;50.754;6.978;2023-05-07T02:57:00;5.55;;;4.50;;
39524;SDS011;25203;50.754;6.978;2023-05-07T02:59:03;6.60;;;5.90;;
39524;SDS011;25203;50.754;6.978;2023-05-07T03:01:03;10.63;;;7.65;;
39524;SDS011;25203;50.754;6.978;2023-05-07T03:03:04;8.98;;;7.90;;
39524;SDS011;25203;50.754;6.978;2023-05-07T03:05:05;10.10;;;7.60;;
39524;SDS011;25203;50.754;6.978;2023-05-07T03:07:06;12.77;;;8.40;;
39524;SDS011;25203;50.754;6.978;2023-05-07T03:09:07;8.60;;;7.10;;
39524;SDS011;25203;50.754;6.978;2023-05-07T03:11:07;10.65;;;7.75;;
39524;SDS011;25203;50.754;6.978;2023-05-07T03:13:08;8.40;;;6.93;;
39524;SDS011;25203;50.754;6.978;2023-05-07T03:15:09;8.82;;;7.35;;
39524;SDS011;25203;50.754;6.978;2023-05-07T03:17:10;9.73;;;8.10;;
39524;SDS011;25203;50.754;6.978;2023-05-07T03:19:11;7.78;;;7.07;;
39524;SDS011;25203;50.754;6.978;2023-05-07T03:21:11;9.10;;;7.70;;
39524;SDS011;25203;50.754;6.978;2023-05-07T03:23:12;8.50;;;7.70;;
39524;SDS011;25203;50.754;6.978;2023-05-07T03:25:12;7.35;;;6.65;;
39524;SDS011;25203;50.754;6.978;2023-05-07T03:27:14;6.32;;;5.72;;
39524;SDS011;25203;50.754;6.978;2023-05-07T03:29:15;7.22;;;6.50;;
39524;SDS011;25203;50.754;6.978;2023-05-07T03:31:15;11.75;;;8.95;;
39524;SDS011;25203;50.754;6.978;2023-05-07T03:33:16;11.60;;;9.23;;
39524;SDS011;25203;50.754;6.978;2023-05-07T03:35:17;10.95;;;7.40;;
39524;SDS011;25203;50.754;6.978;2023-05-07T03:37:18;7.93;;;5.53;;
39524;SDS011;25203;50.754;6.978;2023-05-07T03:39:19;11.25;;;5.15;;
39524;SDS011;25203;50.754;6.978;2023-05-07T03:41:19;10.15;;;5.28;;
39524;SDS011;25203;50.754;6.978;2023-05-07T03:43:20;5.90;;;4.50;;
39524;SDS011;25203;50.754;6.978;2023-05-07T03:45:21;6.38;;;3.58;;
39524;SDS011;25203;50.754;6.978;2023-05-07T03:47:22;5.47;;;4.65;;
39524;SDS011;25203;50.754;6.978;2023-05-07T03:49:22;4.78;;;4.25;;
39524;SDS011;25203;50.754;6.978;2023-05-07T03:51:23;6.13;;;4.57;;
39524;SDS011;25203;50.754;6.978;2023-05-07T03:53:23;7.55;;;6.35;;
39524;SDS011;25203;50.754;6.978;2023-05-07T03:55:24;7.53;;;5.65;;
39524;SDS011;25203;50.754;6.978;2023-05-07T03:57:25;8.50;;;7.60;;
39524;SDS011;25203;50.754;6.978;2023-05-07T03:59:25;8.85;;;6.57;;
39524;SDS011;25203;50.754;6.978;2023-05-07T04:01:26;7.15;;;4.90;;
39524;SDS011;25203;50.754;6.978;2023-05-07T04:03:27;11.27;;;5.65;;
39524;SDS011;25203;50.754;6.978;2023-05-07T04:05:27;10.32;;;7.47;;
39524;SDS011;25203;50.754;6.978;2023-05-07T04:07:28;9.63;;;6.20;;
39524;SDS011;25203;50.754;6.978;2023-05-07T04:09:29;8.95;;;6.35;;
39524;SDS011;25203;50.754;6.978;2023-05-07T04:11:29;9.80;;;6.22;;
39524;SDS011;25203;50.754;6.978;2023-05-07T04:13:30;6.90;;;5.38;;
39524;SDS011;25203;50.754;6.978;2023-05-07T04:15:31;10.70;;;7.78;;
39524;SDS011;25203;50.754;6.978;2023-05-07T04:17:31;8.15;;;7.20;;
39524;SDS011;25203;50.754;6.978;2023-05-07T04:19:35;8.35;;;6.28;;
39524;SDS011;25203;50.754;6.978;2023-05-07T04:21:35;8.00;;;6.07;;
39524;SDS011;25203;50.754;6.978;2023-05-07T04:23:36;6.80;;;5.80;;
39524;SDS011;25203;50.754;6.978;2023-05-07T04:25:36;6.68;;;4.95;;
39524;SDS011;25203;50.754;6.978;2023-05-07T04:27:37;6.95;;;6.18;;
39524;SDS011;25203;50.754;6.978;2023-05-07T04:29:37;8.05;;;7.20;;
39524;SDS011;25203;50.754;6.978;2023-05-07T04:31:42;9.35;;;7.68;;
39524;SDS011;25203;50.754;6.978;2023-05-07T04:33:44;9.65;;;6.97;;
39524;SDS011;25203;50.754;6.978;2023-05-07T04:35:44;11.60;;;7.20;;
39524;SDS011;25203;50.754;6.978;2023-05-07T04:37:46;7.38;;;6.13;;
39524;SDS011;25203;50.754;6.978;2023-05-07T04:39:46;7.55;;;6.70;;
39524;SDS011;25203;50.754;6.978;2023-05-07T04:41:47;8.45;;;6.28;;
39524;SDS011;25203;50.754;6.978;2023-05-07T04:43:48;9.75;;;6.68;;
39524;SDS011;25203;50.754;6.978;2023-05-07T04:45:49;8.52;;;6.57;;
39524;SDS011;25203;50.754;6.978;2023-05-07T04:47:51;9.32;;;7.65;;
39524;SDS011;25203;50.754;6.978;2023-05-07T04:49:51;10.98;;;7.57;;
39524;SDS011;25203;50.754;6.978;2023-05-07T04:51:52;13.13;;;8.52;;
39524;SDS011;25203;50.754;6.978;2023-05-07T04:53:52;14.85;;;11.75;;
39524;SDS011;25203;50.754;6.978;2023-05-07T04:55:56;10.68;;;9.52;;
39524;SDS011;25203;50.754;6.978;2023-05-07T04:57:57;11.63;;;9.00;;
39524;SDS011;25203;50.754;6.978;2023-05-07T04:59:58;12.60;;;9.50;;
39524;SDS011;25203;50.754;6.978;2023-05-07T05:01:58;11.07;;;9.80;;
39524;SDS011;25203;50.754;6.978;2023-05-07T05:03:59;15.73;;;13.27;;
39524;SDS011;25203;50.754;6.978;2023-05-07T05:06:00;11.55;;;10.35;;
39524;SDS011;25203;50.754;6.978;2023-05-07T05:08:00;13.90;;;9.50;;
39524;SDS011;25203;50.754;6.978;2023-05-07T05:10:01;11.50;;;10.05;;
39524;SDS011;25203;50.754;6.978;2023-05-07T05:12:03;14.43;;;10.40;;
39524;SDS011;25203;50.754;6.978;2023-05-07T05:14:04;11.52;;;10.32;;
39524;SDS011;25203;50.754;6.978;2023-05-07T05:16:04;14.52;;;9.95;;
39524;SDS011;25203;50.754;6.978;2023-05-07T05:18:05;11.10;;;9.93;;
39524;SDS011;25203;50.754;6.978;2023-05-07T05:20:06;12.25;;;10.95;;
39524;SDS011;25203;50.754;6.978;2023-05-07T05:22:07;13.02;;;10.32;;
39524;SDS011;25203;50.754;6.978;2023-05-07T05:24:07;11.57;;;9.85;;
39524;SDS011;25203;50.754;6.978;2023-05-07T05:26:08;10.52;;;9.13;;
39524;SDS011;25203;50.754;6.978;2023-05-07T05:28:09;11.68;;;10.15;;
39524;SDS011;25203;50.754;6.978;2023-05-07T05:30:09;10.35;;;8.18;;
39524;SDS011;25203;50.754;6.978;2023-05-07T05:32:10;9.68;;;8.63;;
39524;SDS011;25203;50.754;6.978;2023-05-07T05:34:11;10.93;;;7.80;;
39524;SDS011;25203;50.754;6.978;2023-05-07T05:36:12;13.68;;;9.35;;
39524;SDS011;25203;50.754;6.978;2023-05-07T05:38:13;9.88;;;8.60;;
39524;SDS011;25203;50.754;6.978;2023-05-07T05:40:13;10.07;;;7.97;;
39524;SDS011;25203;50.754;6.978;2023-05-07T05:42:14;9.57;;;8.60;;
39524;SDS011;25203;50.754;6.978;2023-05-07T05:44:14;10.75;;;8.90;;
39524;SDS011;25203;50.754;6.978;2023-05-07T05:46:15;10.50;;;8.52;;
39524;SDS011;25203;50.754;6.978;2023-05-07T05:48:16;10.23;;;8.27;;
39524;SDS011;25203;50.754;6.978;2023-05-07T05:50:17;10.32;;;7.82;;
39524;SDS011;25203;50.754;6.978;2023-05-07T05:52:17;8.15;;;7.35;;
39524;SDS011;25203;50.754;6.978;2023-05-07T05:54:18;9.05;;;7.40;;
39524;SDS011;25203;50.754;6.978;2023-05-07T05:56:19;9.18;;;7.85;;
39524;SDS011;25203;50.754;6.978;2023-05-07T05:58:19;8.77;;;7.47;;
39524;SDS011;25203;50.754;6.978;2023-05-07T06:00:20;9.05;;;7.55;;
39524;SDS011;25203;50.754;6.978;2023-05-07T06:02:23;14.75;;;8.07;;
39524;SDS011;25203;50.754;6.978;2023-05-07T06:04:24;10.38;;;7.93;;
39524;SDS011;25203;50.754;6.978;2023-05-07T06:06:25;8.45;;;7.22;;
39524;SDS011;25203;50.754;6.978;2023-05-07T06:08:28;7.35;;;6.50;;
39524;SDS011;25203;50.754;6.978;2023-05-07T06:10:29;7.97;;;6.20;;
39524;SDS011;25203;50.754;6.978;2023-05-07T06:12:30;7.97;;;6.43;;
39524;SDS011;25203;50.754;6.978;2023-05-07T06:14:31;6.32;;;5.72;;
39524;SDS011;25203;50.754;6.978;2023-05-07T06:16:32;8.13;;;6.07;;
39524;SDS011;25203;50.754;6.978;2023-05-07T06:18:32;7.55;;;6.75;;
39524;SDS011;25203;50.754;6.978;2023-05-07T06:20:35;6.57;;;5.95;;
39524;SDS011;25203;50.754;6.978;2023-05-07T06:22:36;8.82;;;6.85;;
39524;SDS011;25203;50.754;6.978;2023-05-07T06:24:37;6.63;;;5.40;;
39524;SDS011;25203;50.754;6.978;2023-05-07T06:26:37;8.05;;;5.78;;
39524;SDS011;25203;50.754;6.978;2023-05-07T06:28:38;6.57;;;5.88;;
39524;SDS011;25203;50.754;6.978;2023-05-07T06:30:38;7.63;;;5.85;;
39524;SDS011;25203;50.754;6.978;2023-05-07T06:32:40;8.68;;;5.65;;
39524;SDS011;25203;50.754;6.978;2023-05-07T06:34:41;8.05;;;5.93;;
39524;SDS011;25203;50.754;6.978;2023-05-07T06:36:41;8.07;;;5.28;;
39524;SDS011;25203;50.754;6.978;2023-05-07T06:38:42;6.35;;;5.18;;
39524;SDS011;25203;50.754;6.978;2023-05-07T06:40:43;6.07;;;5.03;;
39524;SDS011;25203;50.754;6.978;2023-05-07T06:42:43;5.18;;;4.70;;
39524;SDS011;25203;50.754;6.978;2023-05-07T06:44:44;10.25;;;5.32;;
39524;SDS011;25203;50.754;6.978;2023-05-07T06:46:45;6.55;;;4.80;;
39524;SDS011;25203;50.754;6.978;2023-05-07T06:48:45;8.20;;;5.10;;
39524;SDS011;25203;50.754;6.978;2023-05-07T06:50:46;5.72;;;4.93;;
39524;SDS011;25203;50.754;6.978;2023-05-07T06:52:46;8.95;;;4.70;;
39524;SDS011;25203;50.754;6.978;2023-05-07T06:54:47;6.82;;;4.93;;
39524;SDS011;25203;50.754;6.978;2023-05-07T06:56:48;7.38;;;4.68;;
39524;SDS011;25203;50.754;6.978;2023-05-07T06:58:48;8.07;;;4.70;;
39524;SDS011;25203;50.754;6.978;2023-05-07T07:00:49;5.22;;;4.10;;
39524;SDS011;25203;50.754;6.978;2023-05-07T07:02:49;7.10;;;4.53;;
39524;SDS011;25203;50.754;6.978;2023-05-07T07:04:50;7.15;;;4.30;;
39524;SDS011;25203;50.754;6.978;2023-05-07T07:06:53;4.38;;;3.92;;
39524;SDS011;25203;50.754;6.978;2023-05-07T07:08:54;7.30;;;4.30;;
39524;SDS011;25203;50.754;6.978;2023-05-07T07:10:55;5.35;;;3.85;;
39524;SDS011;25203;50.754;6.978;2023-05-07T07:12:55;4.43;;;3.80;;
39524;SDS011;25203;50.754;6.978;2023-05-07T07:14:56;4.07;;;3.67;;
39524;SDS011;25203;50.754;6.978;2023-05-07T07:16:57;5.30;;;3.40;;
39524;SDS011;25203;50.754;6.978;2023-05-07T07:18:57;4.28;;;3.20;;
39524;SDS011;25203;50.754;6.978;2023-05-07T07:20:58;4.82;;;3.70;;
39524;SDS011;25203;50.754;6.978;2023-05-07T07:22:59;6.65;;;3.35;;
39524;SDS011;25203;50.754;6.978;2023-05-07T07:24:59;5.10;;;3.67;;
39524;SDS011;25203;50.754;6.978;2023-05-07T07:27:00;4.18;;;2.97;;
39524;SDS011;25203;50.754;6.978;2023-05-07T07:29:01;5.20;;;3.15;;
39524;SDS011;25203;50.754;6.978;2023-05-07T07:31:01;3.72;;;2.78;;
39524;SDS011;25203;50.754;6.978;2023-05-07T07:33:02;7.07;;;3.00;;
39524;SDS011;25203;50.754;6.978;2023-05-07T07:35:03;4.53;;;2.60;;
39524;SDS011;25203;50.754;6.978;2023-05-07T07:37:04;8.18;;;2.75;;
39524;SDS011;25203;50.754;6.978;2023-05-07T07:39:06;4.00;;;2.78;;
39524;SDS011;25203;50.754;6.978;2023-05-07T07:41:09;4.53;;;2.72;;
39524;SDS011;25203;50.754;6.978;2023-05-07T07:43:10;7.20;;;2.70;;
39524;SDS011;25203;50.754;6.978;2023-05-07T07:45:11;4.18;;;2.75;;
39524;SDS011;25203;50.754;6.978;2023-05-07T07:47:12;2.78;;;2.58;;
39524;SDS011;25203;50.754;6.978;2023-05-07T07:49:12;5.28;;;2.65;;
39524;SDS011;25203;50.754;6.978;2023-05-07T07:51:13;4.97;;;2.97;;
39524;SDS011;25203;50.754;6.978;2023-05-07T07:53:14;4.97;;;2.72;;
39524;SDS011;25203;50.754;6.978;2023-05-07T07:55:15;3.78;;;3.05;;
39524;SDS011;25203;50.754;6.978;2023-05-07T07:57:21;4.22;;;2.65;;
39524;SDS011;25203;50.754;6.978;2023-05-07T07:59:21;2.40;;;2.10;;
39524;SDS011;25203;50.754;6.978;2023-05-07T08:01:22;3.53;;;2.70;;
39524;SDS011;25203;50.754;6.978;2023-05-07T08:03:22;3.17;;;2.70;;
39524;SDS011;25203;50.754;6.978;2023-05-07T08:05:23;4.50;;;2.65;;
39524;SDS011;25203;50.754;6.978;2023-05-07T08:07:24;3.42;;;2.45;;
39524;SDS011;25203;50.754;6.978;2023-05-07T08:09:25;4.72;;;2.95;;
39524;SDS011;25203;50.754;6.978;2023-05-07T08:11:26;2.50;;;2.10;;
39524;SDS011;25203;50.754;6.978;2023-05-07T08:13:27;5.07;;;2.15;;
39524;SDS011;25203;50.754;6.978;2023-05-07T08:15:27;3.50;;;2.45;;
39524;SDS011;25203;50.754;6.978;2023-05-07T08:17:28;5.68;;;2.70;;
39524;SDS011;25203;50.754;6.978;2023-05-07T08:19:28;5.30;;;2.60;;
39524;SDS011;25203;50.754;6.978;2023-05-07T08:21:29;3.88;;;2.10;;
39524;SDS011;25203;50.754;6.978;2023-05-07T08:23:30;3.70;;;2.38;;
39524;SDS011;25203;50.754;6.978;2023-05-07T08:25:32;2.90;;;1.92;;
39524;SDS011;25203;50.754;6.978;2023-05-07T08:27:34;5.05;;;2.40;;
39524;SDS011;25203;50.754;6.978;2023-05-07T08:29:34;4.85;;;2.20;;
39524;SDS011;25203;50.754;6.978;2023-05-07T08:31:35;10.65;;;2.40;;
39524;SDS011;25203;50.754;6.978;2023-05-07T08:33:36;1.92;;;1.70;;
39524;SDS011;25203;50.754;6.978;2023-05-07T08:35:38;2.38;;;1.58;;
39524;SDS011;25203;50.754;6.978;2023-05-07T08:37:38;4.82;;;1.70;;
39524;SDS011;25203;50.754;6.978;2023-05-07T08:39:39;2.30;;;1.73;;
39524;SDS011;25203;50.754;6.978;2023-05-07T08:41:40;4.38;;;1.70;;
39524;SDS011;25203;50.754;6.978;2023-05-07T08:43:43;5.40;;;1.90;;
39524;SDS011;25203;50.754;6.978;2023-05-07T08:45:47;4.30;;;2.00;;
39524;SDS011;25203;50.754;6.978;2023-05-07T08:47:55;3.78;;;1.50;;
39524;SDS011;25203;50.754;6.978;2023-05-07T08:50:00;2.25;;;1.73;;
39524;SDS011;25203;50.754;6.978;2023-05-07T08:52:02;5.93;;;1.83;;
39524;SDS011;25203;50.754;6.978;2023-05-07T08:54:02;1.83;;;1.45;;
39524;SDS011;25203;50.754;6.978;2023-05-07T08:56:05;2.45;;;1.55;;
39524;SDS011;25203;50.754;6.978;2023-05-07T08:58:07;3.90;;;1.48;;
39524;SDS011;25203;50.754;6.978;2023-05-07T09:00:07;3.58;;;1.40;;
39524;SDS011;25203;50.754;6.978;2023-05-07T09:02:09;1.95;;;1.35;;
39524;SDS011;25203;50.754;6.978;2023-05-07T09:04:11;3.50;;;1.70;;
39524;SDS011;25203;50.754;6.978;2023-05-07T09:06:12;3.05;;;1.90;;
39524;SDS011;25203;50.754;6.978;2023-05-07T09:08:14;2.33;;;1.45;;
39524;SDS011;25203;50.754;6.978;2023-05-07T09:10:16;8.10;;;1.75;;
39524;SDS011;25203;50.754;6.978;2023-05-07T09:12:17;1.70;;;1.42;;
39524;SDS011;25203;50.754;6.978;2023-05-07T09:14:18;2.92;;;1.38;;
39524;SDS011;25203;50.754;6.978;2023-05-07T09:16:21;1.65;;;1.17;;
39524;SDS011;25203;50.754;6.978;2023-05-07T09:18:23;3.03;;;1.42;;
39524;SDS011;25203;50.754;6.978;2023-05-07T09:20:25;2.05;;;1.50;;
39524;SDS011;25203;50.754;6.978;2023-05-07T09:22:26;2.35;;;1.20;;
39524;SDS011;25203;50.754;6.978;2023-05-07T09:24:26;1.45;;;1.35;;
39524;SDS011;25203;50.754;6.978;2023-05-07T09:26:28;1.92;;;1.40;;
39524;SDS011;25203;50.754;6.978;2023-05-07T09:28:29;4.15;;;1.60;;
39524;SDS011;25203;50.754;6.978;2023-05-07T09:30:30;2.83;;;1.50;;
39524;SDS011;25203;50.754;6.978;2023-05-07T09:32:34;5.03;;;1.52;;
39524;SDS011;25203;50.754;6.978;2023-05-07T09:34:36;2.28;;;1.30;;
39524;SDS011;25203;50.754;6.978;2023-05-07T09:36:36;2.88;;;1.30;;
39524;SDS011;25203;50.754;6.978;2023-05-07T09:38:37;2.90;;;1.67;;
39524;SDS011;25203;50.754;6.978;2023-05-07T09:40:38;2.33;;;1.65;;
39524;SDS011;25203;50.754;6.978;2023-05-07T09:42:39;1.95;;;1.70;;
39524;SDS011;25203;50.754;6.978;2023-05-07T09:44:39;4.68;;;1.88;;
39524;SDS011;25203;50.754;6.978;2023-05-07T09:46:41;2.13;;;1.30;;
39524;SDS011;25203;50.754;6.978;2023-05-07T09:48:43;6.47;;;1.40;;
39524;SDS011;25203;50.754;6.978;2023-05-07T09:50:48;3.50;;;1.40;;
39524;SDS011;25203;50.754;6.978;2023-05-07T09:52:51;1.75;;;1.50;;
39524;SDS011;25203;50.754;6.978;2023-05-07T09:54:52;2.50;;;1.45;;
39524;SDS011;25203;50.754;6.978;2023-05-07T09:56:55;3.65;;;1.40;;
39524;SDS011;25203;50.754;6.978;2023-05-07T09:58:57;3.40;;;1.67;;
39524;SDS011;25203;50.754;6.978;2023-05-07T10:01:00;2.60;;;1.48;;
39524;SDS011;25203;50.754;6.978;2023-05-07T10:03:02;6.25;;;1.83;;
39524;SDS011;25203;50.754;6.978;2023-05-07T10:05:04;2.17;;;1.38;;
39524;SDS011;25203;50.754;6.978;2023-05-07T10:07:06;4.07;;;2.10;;
39524;SDS011;25203;50.754;6.978;2023-05-07T10:09:08;1.90;;;1.10;;
39524;SDS011;25203;50.754;6.978;2023-05-07T10:11:11;4.60;;;1.40;;
39524;SDS011;25203;50.754;6.978;2023-05-07T10:13:11;2.05;;;1.45;;
39524;SDS011;25203;50.754;6.978;2023-05-07T10:15:13;2.65;;;1.20;;
39524;SDS011;25203;50.754;6.978;2023-05-07T10:17:15;32.08;;;4.00;;
39524;SDS011;25203;50.754;6.978;2023-05-07T10:19:16;2.35;;;1.30;;
39524;SDS011;25203;50.754;6.978;2023-05-07T10:21:19;3.08;;;1.45;;
39524;SDS011;25203;50.754;6.978;2023-05-07T10:23:22;1.95;;;1.20;;
39524;SDS011;25203;50.754;6.978;2023-05-07T10:25:31;5.55;;;1.70;;
39524;SDS011;25203;50.754;6.978;2023-05-07T10:27:32;3.63;;;1.70;;
39524;SDS011;25203;50.754;6.978;2023-05-07T10:29:45;6.30;;;1.80;;
39524;SDS011;25203;50.754;6.978;2023-05-07T10:34:25;3.67;;;1.80;;
39524;SDS011;25203;50.754;6.978;2023-05-07T10:36:29;3.22;;;1.75;;
39524;SDS011;25203;50.754;6.978;2023-05-07T10:38:31;3.22;;;1.30;;
39524;SDS011;25203;50.754;6.978;2023-05-07T10:40:32;1.75;;;1.20;;
39524;SDS011;25203;50.754;6.978;2023-05-07T10:42:32;1.52;;;1.20;;
39524;SDS011;25203;50.754;6.978;2023-05-07T10:44:33;2.47;;;1.48;;
39524;SDS011;25203;50.754;6.978;2023-05-07T10:46:35;1.85;;;1.15;;
39524;SDS011;25203;50.754;6.978;2023-05-07T10:49:05;2.95;;;1.50;;
39524;SDS011;25203;50.754;6.978;2023-05-07T10:51:19;3.08;;;1.30;;
39524;SDS011;25203;50.754;6.978;2023-05-07T10:53:21;3.65;;;1.42;;
39524;SDS011;25203;50.754;6.978;2023-05-07T10:55:24;4.18;;;1.73;;
39524;SDS011;25203;50.754;6.978;2023-05-07T10:59:32;4.10;;;1.38;;
39524;SDS011;25203;50.754;6.978;2023-05-07T11:04:13;1.60;;;1.50;;
39524;SDS011;25203;50.754;6.978;2023-05-07T11:06:24;1.58;;;1.20;;
39524;SDS011;25203;50.754;6.978;2023-05-07T11:08:25;1.50;;;1.38;;
39524;SDS011;25203;50.754;6.978;2023-05-07T11:11:04;1.80;;;1.50;;
39524;SDS011;25203;50.754;6.978;2023-05-07T11:13:04;2.05;;;1.65;;
39524;SDS011;25203;50.754;6.978;2023-05-07T11:15:06;3.38;;;1.55;;
39524;SDS011;25203;50.754;6.978;2023-05-07T11:17:08;4.32;;;1.70;;
39524;SDS011;25203;50.754;6.978;2023-05-07T11:19:10;2.55;;;1.40;;
39524;SDS011;25203;50.754;6.978;2023-05-07T11:21:10;3.53;;;1.52;;
39524;SDS011;25203;50.754;6.978;2023-05-07T11:25:38;4.00;;;1.63;;
39524;SDS011;25203;50.754;6.978;2023-05-07T11:27:38;3.60;;;1.50;;
39524;SDS011;25203;50.754;6.978;2023-05-07T11:29:41;2.83;;;1.90;;
39524;SDS011;25203;50.754;6.978;2023-05-07T11:31:54;3.67;;;1.70;;
39524;SDS011;25203;50.754;6.978;2023-05-07T11:33:55;2.60;;;1.85;;
39524;SDS011;25203;50.754;6.978;2023-05-07T11:35:56;2.20;;;1.55;;
39524;SDS011;25203;50.754;6.978;2023-05-07T11:37:58;3.33;;;1.73;;
39524;SDS011;25203;50.754;6.978;2023-05-07T11:40:04;1.70;;;1.27;;
39524;SDS011;25203;50.754;6.978;2023-05-07T11:44:45;1.95;;;1.77;;
39524;SDS011;25203;50.754;6.978;2023-05-07T11:46:46;2.63;;;1.85;;
39524;SDS011;25203;50.754;6.978;2023-05-07T11:48:48;1.42;;;1.20;;
39524;SDS011;25203;50.754;6.978;2023-05-07T11:52:58;1.88;;;1.60;;
39524;SDS011;25203;50.754;6.978;2023-05-07T11:54:59;2.97;;;2.00;;
39524;SDS011;25203;50.754;6.978;2023-05-07T11:57:01;2.38;;;2.00;;
39524;SDS011;25203;50.754;6.978;2023-05-07T11:59:02;2.55;;;1.88;;
39524;SDS011;25203;50.754;6.978;2023-05-07T12:01:03;4.05;;;1.95;;
39524;SDS011;25203;50.754;6.978;2023-05-07T12:03:04;4.07;;;1.80;;
39524;SDS011;25203;50.754;6.978;2023-05-07T12:05:05;2.42;;;1.85;;
39524;SDS011;25203;50.754;6.978;2023-05-07T12:07:10;4.15;;;1.88;;
39524;SDS011;25203;50.754;6.978;2023-05-07T12:09:12;2.50;;;1.65;;
39524;SDS011;25203;50.754;6.978;2023-05-07T12:11:14;2.17;;;1.73;;
39524;SDS011;25203;50.754;6.978;2023-05-07T12:13:23;2.28;;;1.60;;
39524;SDS011;25203;50.754;6.978;2023-05-07T12:15:25;3.15;;;1.63;;
39524;SDS011;25203;50.754;6.978;2023-05-07T12:17:25;4.13;;;1.83;;
39524;SDS011;25203;50.754;6.978;2023-05-07T12:19:26;3.38;;;2.10;;
39524;SDS011;25203;50.754;6.978;2023-05-07T12:21:27;3.83;;;1.92;;
39524;SDS011;25203;50.754;6.978;2023-05-07T12:23:29;3.72;;;2.17;;